Terminal Aerodrome Forecast
Issued by NWS

Home | Current Version | Previous Version | Text Only | Print | Product List | Glossary On
Versions: 1 2 3 4 5 6 7 8 9 10 11 12 13 14 15 16
000
FTUS41 KBGM 202300
TAFRME
TAF
KRME 202338Z 2100/2124 11004KT P6SM -SHRA BKN050
      TEMPO 2100/2104 3SM -SHRA BKN025
     FM210500 10004KT 4SM BR BKN025 OVC040
     FM210900 12004KT 3SM BR BKN015 OVC030
      TEMPO 2110/2114 2SM BR BKN008 OVC012
     FM211700 14004KT P6SM -SHRA BKN025=

USA.gov is the U.S. government's official web portal to all federal, state and local government web resources and services.